createdAt,value
2019-01-12T00:01:53.225Z,101330.92
2019-01-12T00:04:23.752Z,101325.22
2019-01-12T00:06:54.211Z,101334.02
2019-01-12T00:09:24.736Z,101329.23
2019-01-12T00:11:55.235Z,101328.98
2019-01-12T00:14:25.766Z,101330.49
2019-01-12T00:16:56.260Z,101327.75
2019-01-12T00:19:26.829Z,101323.42
2019-01-12T00:21:57.320Z,101317.92
2019-01-12T00:24:31.567Z,101325.02
2019-01-12T00:27:00.091Z,101325.59
2019-01-12T00:29:30.586Z,101328.58
2019-01-12T00:32:01.086Z,101330.46
2019-01-12T00:34:31.612Z,101327.47
2019-01-12T00:37:02.131Z,101329.72
2019-01-12T00:39:32.615Z,101327.47
2019-01-12T00:42:03.269Z,101328.20
2019-01-12T00:44:33.773Z,101329.18
2019-01-12T00:47:04.294Z,101325.33
2019-01-12T00:49:34.847Z,101325.42
2019-01-12T00:52:05.329Z,101331.98
2019-01-12T00:54:38.727Z,101321.00
2019-01-12T00:57:08.068Z,101329.23
2019-01-12T00:59:38.545Z,101321.66
2019-01-12T01:02:09.030Z,101319.97
2019-01-12T01:04:39.591Z,101321.11
2019-01-12T01:07:10.081Z,101327.47
2019-01-12T01:09:40.733Z,101319.60
2019-01-12T01:12:11.311Z,101335.34
2019-01-12T01:14:41.810Z,101318.48
2019-01-12T01:17:12.349Z,101318.69
2019-01-12T01:19:43.548Z,101317.38
2019-01-12T01:22:14.031Z,101309.39
2019-01-12T01:24:45.926Z,101305.17
2019-01-12T01:27:16.774Z,101309.42
2019-01-12T01:29:47.259Z,101303.69
2019-01-12T01:32:17.738Z,101303.77
2019-01-12T01:34:48.249Z,101308.65
2019-01-12T01:37:18.760Z,101308.73
2019-01-12T01:39:49.256Z,101304.71
2019-01-12T01:42:19.798Z,101306.14
2019-01-12T01:44:50.284Z,101309.42
2019-01-12T01:47:20.801Z,101298.07
2019-01-12T01:49:51.310Z,101303.98
2019-01-12T01:52:21.819Z,101295.27
2019-01-12T01:54:52.923Z,101287.66
2019-01-12T01:57:23.744Z,101293.77
2019-01-12T01:59:54.225Z,101295.64
2019-01-12T02:02:24.709Z,101289.62
2019-01-12T02:04:55.248Z,101294.50
2019-01-12T02:07:25.728Z,101281.30
2019-01-12T02:09:56.218Z,101285.63
2019-01-12T02:12:26.756Z,101288.88
2019-01-12T02:14:57.241Z,101291.91
2019-01-12T02:17:27.824Z,101285.34
2019-01-12T02:19:58.353Z,101275.95
2019-01-12T02:22:28.852Z,101274.84
2019-01-12T02:25:00.154Z,101269.52
2019-01-12T02:27:30.811Z,101265.86
2019-01-12T02:30:01.393Z,101251.98
2019-01-12T02:32:31.898Z,101244.47
2019-01-12T02:35:02.806Z,101254.41
2019-01-12T02:37:33.294Z,101239.63
2019-01-12T02:40:03.835Z,101232.40
2019-01-12T02:42:34.382Z,101237.55
2019-01-12T02:45:05.479Z,101230.98
2019-01-12T02:47:35.987Z,101233.05
2019-01-12T02:50:08.861Z,101220.96
2019-01-12T02:52:39.971Z,101227.98
2019-01-12T02:55:10.702Z,101225.35
2019-01-12T02:57:41.200Z,101217.77
2019-01-12T03:00:18.354Z,101220.66
2019-01-12T03:02:49.048Z,101213.00
2019-01-12T03:05:19.541Z,101213.09
2019-01-12T03:07:50.100Z,101216.27
2019-01-12T03:10:20.639Z,101212.25
2019-01-12T03:12:51.122Z,101206.23
2019-01-12T03:15:21.593Z,101212.45
2019-01-12T03:17:52.188Z,101200.83
2019-01-12T03:20:22.716Z,101201.86
2019-01-12T03:22:53.261Z,101198.05
2019-01-12T03:25:23.819Z,101199.48
2019-01-12T03:27:54.296Z,101198.34
2019-01-12T03:30:24.778Z,101194.58
2019-01-12T03:32:55.306Z,101191.22
2019-01-12T03:35:25.782Z,101184.77
2019-01-12T03:37:56.280Z,101189.64
2019-01-12T03:40:26.773Z,101191.64
2019-01-12T03:42:57.243Z,101189.78
2019-01-12T03:45:27.744Z,101190.89
2019-01-12T03:47:58.276Z,101173.66
2019-01-12T03:50:28.752Z,101178.16
2019-01-12T03:52:59.228Z,101179.47
2019-01-12T03:55:29.800Z,101172.61
2019-01-12T03:58:00.286Z,101169.80
2019-01-12T04:00:30.792Z,101173.83
2019-01-12T04:03:01.312Z,101168.41
2019-01-12T04:05:31.791Z,101173.27
2019-01-12T04:08:02.287Z,101177.11
2019-01-12T04:10:32.879Z,101173.27
2019-01-12T04:13:03.368Z,101157.52
2019-01-12T04:15:33.918Z,101152.66
2019-01-12T04:18:04.465Z,101152.30
2019-01-12T04:20:34.975Z,101143.66
2019-01-12T04:23:05.521Z,101150.31
2019-01-12T04:25:36.020Z,101142.16
2019-01-12T04:28:07.061Z,101152.59
2019-01-12T04:30:37.589Z,101145.09
2019-01-12T04:33:08.119Z,101151.28
2019-01-12T04:35:38.668Z,101144.42
2019-01-12T04:38:09.148Z,101140.38
2019-01-12T04:40:39.839Z,101138.44
2019-01-12T04:43:10.353Z,101133.07
2019-01-12T04:45:40.850Z,101136.94
2019-01-12T04:48:11.417Z,101136.75
2019-01-12T04:50:41.940Z,101136.17
2019-01-12T04:53:12.443Z,101128.42
2019-01-12T04:55:42.984Z,101124.38
2019-01-12T04:58:13.505Z,101124.59
2019-01-12T05:00:44.021Z,101124.77
2019-01-12T05:03:14.544Z,101119.34
2019-01-12T05:05:45.063Z,101110.88
2019-01-12T05:08:15.548Z,101113.73
2019-01-12T05:10:46.113Z,101112.59
2019-01-12T05:13:16.634Z,101116.89
2019-01-12T05:15:47.156Z,101121.11
2019-01-12T05:18:17.643Z,101113.59
2019-01-12T05:20:48.149Z,101116.89
2019-01-12T05:23:18.684Z,101107.88
2019-01-12T05:25:49.487Z,101113.41
2019-01-12T05:28:20.037Z,101115.30
2019-01-12T05:30:50.576Z,101102.83
2019-01-12T05:33:21.139Z,101102.83
2019-01-12T05:35:51.678Z,101110.12
2019-01-12T05:38:22.162Z,101103.19
2019-01-12T05:40:52.717Z,101113.12
2019-01-12T05:43:23.220Z,101107.52
2019-01-12T05:45:53.741Z,101099.08
2019-01-12T05:48:24.265Z,101094.41
2019-01-12T05:50:54.790Z,101089.98
2019-01-12T05:53:25.281Z,101091.39
2019-01-12T05:55:58.112Z,101095.72
2019-01-12T05:58:28.086Z,101091.39
2019-01-12T06:00:58.611Z,101088.86
2019-01-12T06:03:29.138Z,101091.21
2019-01-12T06:05:59.673Z,101084.47
2019-01-12T06:08:30.240Z,101085.77
2019-01-12T06:11:00.799Z,101081.66
2019-01-12T06:13:31.277Z,101086.72
2019-01-12T06:16:01.852Z,101076.23
2019-01-12T06:18:32.371Z,101073.33
2019-01-12T06:21:02.867Z,101070.53
2019-01-12T06:23:33.368Z,101061.72
2019-01-12T06:26:04.290Z,101058.55
2019-01-12T06:28:34.943Z,101066.69
2019-01-12T06:31:05.563Z,101064.17
2019-01-12T06:33:36.080Z,101065.75
2019-01-12T06:36:06.672Z,101065.75
2019-01-12T06:38:37.190Z,101052.45
2019-01-12T06:41:07.726Z,101056.39
2019-01-12T06:43:38.216Z,101045.05
2019-01-12T07:10:51.193Z,101027.52
2019-01-12T07:14:45.922Z,101032.22
2019-01-12T07:17:16.983Z,101016.30
2019-01-12T07:19:49.708Z,101020.23
2019-01-12T07:22:20.255Z,101019.02
2019-01-12T07:24:54.470Z,101016.12
2019-01-12T07:27:24.974Z,101020.23
2019-01-12T07:29:55.486Z,101014.62
2019-01-12T07:32:26.200Z,101011.23
2019-01-12T07:34:56.929Z,101015.44
2019-01-12T07:37:27.482Z,101014.72
2019-01-12T07:39:58.380Z,101010.88
2019-01-12T07:42:29.084Z,101007.34
2019-01-12T07:44:59.877Z,101005.63
2019-01-12T07:47:30.982Z,101008.46
2019-01-12T07:50:02.238Z,101003.41
2019-01-12T07:52:33.011Z,101012.39
2019-01-12T07:55:03.532Z,100993.98
2019-01-12T07:57:34.102Z,100993.86
2019-01-12T08:00:08.645Z,100983.09
2019-01-12T08:02:39.560Z,100986.58
2019-01-12T08:05:10.868Z,100989.20
2019-01-12T08:07:42.737Z,100980.30
2019-01-12T08:10:21.392Z,100975.45
2019-01-12T08:13:02.107Z,100974.50
2019-01-12T08:15:34.652Z,100973.02
2019-01-12T08:18:06.478Z,100964.45
2019-01-12T08:20:37.648Z,100969.69
2019-01-12T08:23:08.374Z,100967.47
2019-01-12T08:25:41.839Z,100961.06
2019-01-12T08:28:12.562Z,100953.77
2019-01-12T08:30:43.394Z,100948.98
2019-01-12T08:33:14.086Z,100947.98
2019-01-12T08:35:46.016Z,100944.64
2019-01-12T08:38:17.043Z,100946.50
2019-01-12T08:40:48.909Z,100951.59
2019-01-12T08:43:19.882Z,100948.11
2019-01-12T08:45:51.704Z,100949.12
2019-01-12T08:48:22.455Z,100945.86
2019-01-12T08:50:53.803Z,100922.67
2019-01-12T08:53:24.641Z,100931.84
2019-01-12T08:55:55.412Z,100937.63
2019-01-12T08:58:26.317Z,100930.80
2019-01-12T09:00:56.970Z,100929.49
2019-01-12T09:03:28.190Z,100922.58
2019-01-12T09:05:59.558Z,100913.95
2019-01-12T09:08:30.201Z,100908.53
2019-01-12T09:11:02.210Z,100899.67
2019-01-12T09:13:33.844Z,100891.63
2019-01-12T09:16:04.539Z,100889.92
2019-01-12T09:18:35.331Z,100880.11
2019-01-12T09:21:06.249Z,100882.64
2019-01-12T09:23:36.881Z,100878.58
2019-01-12T09:26:07.943Z,100867.56
2019-01-12T09:28:38.611Z,100860.33
2019-01-12T09:31:09.389Z,100860.33
2019-01-12T09:33:40.185Z,100851.73
2019-01-12T09:36:10.781Z,100847.05
2019-01-12T09:38:42.857Z,100847.90
2019-01-12T09:41:13.698Z,100844.41
2019-01-12T09:43:44.271Z,100834.52
2019-01-12T09:46:14.880Z,100829.55
2019-01-12T09:48:45.453Z,100829.55
2019-01-12T09:51:15.968Z,100818.31
2019-01-12T09:53:46.555Z,100808.92
2019-01-12T09:56:17.736Z,100802.23
2019-01-12T09:58:48.753Z,100790.97
2019-01-12T10:01:21.849Z,100782.84
2019-01-12T10:03:52.408Z,100778.12
2019-01-12T10:06:23.112Z,100771.03
2019-01-12T10:08:53.722Z,100766.15
2019-01-12T10:11:24.341Z,100759.14
2019-01-12T10:13:54.950Z,100753.05
2019-01-12T10:16:25.621Z,100748.22
2019-01-12T10:18:56.244Z,100743.98
2019-01-12T10:21:26.937Z,100741.45
2019-01-12T10:23:57.838Z,100735.66
2019-01-12T10:26:28.629Z,100728.92
2019-01-12T10:28:59.506Z,100727.44
2019-01-12T10:31:30.392Z,100714.89
2019-01-12T10:34:01.027Z,100720.64
2019-01-12T10:36:31.786Z,100702.23
2019-01-12T10:39:02.505Z,100706.48
2019-01-12T10:41:33.177Z,100696.92
2019-01-12T10:44:03.914Z,100684.12
2019-01-12T10:46:35.004Z,100686.52
2019-01-12T10:49:06.111Z,100673.65
2019-01-12T10:51:37.225Z,100676.63
2019-01-12T10:54:08.152Z,100661.50
2019-01-12T10:56:38.889Z,100657.50
2019-01-12T10:59:09.660Z,100653.50
2019-01-12T11:01:41.657Z,100640.30
2019-01-12T11:04:12.334Z,100635.81
2019-01-12T11:06:42.985Z,100635.95
2019-01-12T11:09:13.924Z,100626.77
2019-01-12T11:11:44.817Z,100608.50
2019-01-12T11:14:15.799Z,100606.99
2019-01-12T11:16:46.514Z,100613.91
2019-01-12T11:19:17.263Z,100593.30
2019-01-12T11:21:48.077Z,100585.00
2019-01-12T11:24:18.873Z,100576.42
2019-01-12T11:26:49.541Z,100575.47
2019-01-12T11:29:20.815Z,100562.52
2019-01-12T11:31:51.527Z,100561.41
2019-01-12T11:34:22.220Z,100553.15
2019-01-12T11:36:53.016Z,100544.17
2019-01-12T11:39:23.674Z,100534.41
2019-01-12T11:41:54.250Z,100531.17
2019-01-12T11:44:24.836Z,100516.30
2019-01-12T11:46:55.422Z,100518.33
2019-01-12T11:49:26.815Z,100509.66
2019-01-12T11:51:57.569Z,100498.17
2019-01-12T11:54:28.289Z,100490.00
2019-01-12T11:56:59.027Z,100480.33
2019-01-12T11:59:29.703Z,100470.52
2019-01-12T12:02:00.372Z,100455.92
2019-01-12T12:04:31.101Z,100460.14
2019-01-12T12:07:01.721Z,100451.28
2019-01-12T12:09:32.374Z,100443.77
2019-01-12T12:12:03.036Z,100442.46
2019-01-12T12:14:34.295Z,100433.64
2019-01-12T12:17:04.936Z,100424.42
2019-01-12T12:19:35.656Z,100430.37
2019-01-12T12:22:06.432Z,100400.97
2019-01-12T12:24:37.423Z,100406.21
2019-01-12T12:27:09.896Z,100406.78
2019-01-12T12:29:40.639Z,100389.87
2019-01-12T12:32:11.456Z,100291.11
2019-01-12T12:34:42.038Z,100370.67
2019-01-12T12:37:12.745Z,100368.32
2019-01-12T12:39:43.451Z,100374.52
2019-01-12T12:42:15.054Z,100363.69
2019-01-12T12:45:01.300Z,100344.48
2019-01-12T12:52:58.674Z,100340.45
2019-01-12T12:55:40.673Z,100318.98
2019-01-12T12:58:30.696Z,100316.22
2019-01-12T13:01:04.206Z,100307.09
2019-01-12T13:04:03.451Z,100303.02
2019-01-12T13:06:35.366Z,100304.34
2019-01-12T13:09:13.971Z,100296.96
2019-01-12T13:11:44.821Z,100301.60
2019-01-12T13:14:21.430Z,100288.13
2019-01-12T13:17:14.488Z,100285.51
2019-01-12T13:20:04.243Z,100280.61
2019-01-12T13:22:35.080Z,100273.83
2019-01-12T13:25:06.508Z,100278.24
2019-01-12T13:28:07.290Z,100274.78
2019-01-12T13:30:37.919Z,100284.56
2019-01-12T13:33:08.583Z,100269.66
2019-01-12T13:35:39.274Z,100280.05
2019-01-12T13:38:09.923Z,100277.66
2019-01-12T13:40:40.632Z,100281.22
2019-01-12T13:43:11.286Z,100284.08
2019-01-12T13:45:41.876Z,100283.14
2019-01-12T13:48:12.437Z,100283.38
2019-01-12T13:50:43.107Z,100282.88
2019-01-12T13:53:13.666Z,100279.19
2019-01-12T13:55:44.242Z,100274.31
2019-01-12T13:58:14.928Z,100280.03
2019-01-12T14:00:45.510Z,100281.11
2019-01-12T14:03:16.119Z,100277.18
2019-01-12T14:05:46.824Z,100269.77
2019-01-12T14:08:17.452Z,100273.59
2019-01-12T14:10:48.409Z,100265.59
2019-01-12T14:13:19.150Z,100269.64
2019-01-12T14:15:49.888Z,100260.23
2019-01-12T14:18:22.709Z,100265.95
2019-01-12T14:20:53.122Z,100259.16
2019-01-12T14:23:23.747Z,100274.79
2019-01-12T14:25:54.661Z,100272.86
2019-01-12T14:28:25.742Z,100266.19
2019-01-12T14:30:56.460Z,100264.41
2019-01-12T14:33:26.986Z,100272.51
2019-01-12T14:35:57.641Z,100260.58
2019-01-12T14:38:28.326Z,100257.73
2019-01-12T14:40:58.909Z,100246.38
2019-01-12T14:43:29.607Z,100250.69
2019-01-12T14:46:00.178Z,100254.86
2019-01-12T14:48:30.915Z,100258.19
2019-01-12T14:51:01.695Z,100245.80
2019-01-12T14:53:35.414Z,100242.56
2019-01-12T14:56:06.253Z,100233.37
2019-01-12T14:58:36.930Z,100246.50
2019-01-12T15:01:07.567Z,100233.95
2019-01-12T15:03:38.181Z,100241.84
2019-01-12T15:06:08.770Z,100236.70
2019-01-12T15:08:39.620Z,100231.95
2019-01-12T15:11:10.326Z,100241.02
2019-01-12T15:13:41.030Z,100236.23
2019-01-12T15:16:11.652Z,100224.53
2019-01-12T15:18:42.318Z,100234.45
2019-01-12T15:21:12.883Z,100242.20
2019-01-12T15:23:43.600Z,100240.77
2019-01-12T15:26:14.199Z,100221.83
2019-01-12T15:28:44.754Z,100227.68
2019-01-12T15:31:15.291Z,100217.18
2019-01-12T15:33:46.069Z,100207.75
2019-01-12T15:36:16.669Z,100208.59
2019-01-12T15:38:47.209Z,100212.78
2019-01-12T15:41:17.793Z,100208.94
2019-01-12T15:43:48.311Z,100213.70
2019-01-12T15:46:18.840Z,100199.89
2019-01-12T15:48:49.533Z,100219.66
2019-01-12T15:51:20.123Z,100213.47
2019-01-12T15:53:50.627Z,100210.51
2019-01-12T15:56:21.519Z,100199.42
2019-01-12T15:58:52.323Z,100194.65
2019-01-12T16:01:23.998Z,100205.73
2019-01-12T16:03:54.879Z,100197.63
2019-01-12T16:06:52.485Z,100188.56
2019-01-12T16:09:23.091Z,100193.20
2019-01-12T16:11:53.998Z,100184.39
2019-01-12T16:14:24.719Z,100174.72
2019-01-12T16:16:55.377Z,100176.98
2019-01-12T16:19:25.972Z,100181.28
2019-01-12T16:21:56.814Z,100187.25
2019-01-12T16:24:28.105Z,100186.05
2019-01-12T16:26:59.352Z,100177.95
2019-01-12T16:29:30.089Z,100179.98
2019-01-12T16:32:00.889Z,100171.38
2019-01-12T16:34:31.609Z,100165.09
2019-01-12T16:37:02.446Z,100174.39
2019-01-12T16:39:33.515Z,100167.23
2019-01-12T16:42:04.463Z,100161.98
2019-01-12T16:44:35.207Z,100156.14
2019-01-12T16:47:30.533Z,100168.43
2019-01-12T16:50:21.017Z,100161.03
2019-01-12T16:52:52.092Z,100156.25
2019-01-12T16:55:22.757Z,100158.87
2019-01-12T16:57:54.501Z,100170.07
2019-01-12T17:00:28.659Z,100153.41
2019-01-12T17:02:59.997Z,100159.23
2019-01-12T17:05:30.784Z,100155.89
2019-01-12T17:08:01.618Z,100156.50
2019-01-12T17:10:32.508Z,100155.30
2019-01-12T17:13:22.431Z,100161.39
2019-01-12T17:15:59.413Z,100160.44
2019-01-12T17:18:30.164Z,100156.38
2019-01-12T17:21:01.068Z,100156.96
2019-01-12T17:23:33.174Z,100163.05
2019-01-12T17:26:04.034Z,100159.59
2019-01-12T17:28:37.431Z,100153.14
2019-01-12T17:31:06.882Z,100157.08
2019-01-12T17:33:37.759Z,100143.38
2019-01-12T17:36:08.293Z,100141.59
2019-01-12T17:38:38.869Z,100150.66
2019-01-12T17:41:09.953Z,100148.14
2019-01-12T17:43:40.485Z,100139.93
2019-01-12T17:46:11.056Z,100138.50
2019-01-12T17:48:41.586Z,100139.94
2019-01-12T17:51:14.917Z,100136.59
2019-01-12T17:53:45.388Z,100131.57
2019-01-12T17:56:16.839Z,100135.97
2019-01-12T17:58:47.472Z,100134.78
2019-01-12T18:01:18.150Z,100150.67
2019-01-12T18:03:48.828Z,100134.20
2019-01-12T18:06:19.497Z,100133.24
2019-01-12T18:08:50.147Z,100128.69
2019-01-12T18:11:20.722Z,100137.06
2019-01-12T18:13:51.358Z,100135.14
2019-01-12T18:16:21.924Z,100132.28
2019-01-12T18:18:52.574Z,100129.42
2019-01-12T18:21:23.289Z,100139.42
2019-01-12T18:23:53.825Z,100124.41
2019-01-12T18:26:24.555Z,100134.41
2019-01-12T18:28:55.126Z,100122.48
2019-01-12T18:31:25.723Z,100129.66
2019-01-12T18:33:56.592Z,100127.38
2019-01-12T18:36:27.129Z,100129.27
2019-01-12T18:38:57.669Z,100128.34
2019-01-12T18:41:28.245Z,100127.12
2019-01-12T18:43:58.753Z,100125.72
2019-01-12T18:46:48.593Z,100137.03
2019-01-12T18:49:19.468Z,100160.64
2019-01-12T18:51:50.256Z,100116.89
2019-01-12T18:54:21.071Z,100117.94
2019-01-12T18:56:51.824Z,100124.75
2019-01-12T18:59:22.448Z,100119.36
2019-01-12T19:01:53.354Z,100108.16
2019-01-12T19:04:24.133Z,100112.61
2019-01-12T19:06:54.719Z,100113.88
2019-01-12T19:09:25.340Z,100109.13
2019-01-12T19:11:55.814Z,100105.89
2019-01-12T19:14:26.337Z,100096.47
2019-01-12T19:16:57.023Z,100099.91
2019-01-12T19:19:27.714Z,100084.66
2019-01-12T19:21:58.305Z,100093.63
2019-01-12T19:24:28.966Z,100100.18
2019-01-12T19:26:59.959Z,100091.70
2019-01-12T19:29:31.070Z,100083.83
2019-01-12T19:32:17.077Z,100087.06
2019-01-12T19:34:47.725Z,100093.01
2019-01-12T19:37:18.471Z,100095.78
2019-01-12T19:39:49.324Z,100099.56
2019-01-12T19:42:19.865Z,100099.10
2019-01-12T19:44:50.491Z,100090.30
2019-01-12T19:47:23.090Z,100088.49
2019-01-12T19:49:53.665Z,100092.78
2019-01-12T19:52:24.463Z,100081.59
2019-01-12T19:54:55.217Z,100093.28
2019-01-12T19:57:25.856Z,100078.50
2019-01-12T19:59:57.730Z,100090.19
2019-01-12T20:02:28.468Z,100070.98
2019-01-12T20:04:59.050Z,100071.48
2019-01-12T20:07:29.787Z,100067.78
2019-01-12T20:10:00.531Z,100066.47
2019-01-12T20:12:31.265Z,100069.91
2019-01-12T20:15:01.944Z,100077.30
2019-01-12T20:17:32.678Z,100068.36
2019-01-12T20:20:03.336Z,100073.02
2019-01-12T20:22:34.135Z,100073.14
2019-01-12T20:25:05.234Z,100062.14
2019-01-12T20:27:35.776Z,100067.16
2019-01-12T20:30:13.408Z,100075.41
2019-01-12T20:33:26.226Z,100082.90
2019-01-12T20:36:56.066Z,100079.81
2019-01-12T20:40:13.737Z,100077.81
2019-01-12T20:43:50.302Z,100066.01
2019-01-12T20:47:00.329Z,100064.96
2019-01-12T20:49:58.968Z,100061.88
2019-01-12T20:53:38.391Z,100073.20
2019-01-12T20:57:04.889Z,100081.91
2019-01-12T21:00:28.102Z,100078.52
2019-01-12T21:03:48.265Z,100071.64
2019-01-12T21:06:57.675Z,100084.96
2019-01-12T21:10:01.382Z,100086.29
2019-01-12T21:13:24.373Z,100075.92
2019-01-12T21:16:06.181Z,100074.61
2019-01-12T21:18:36.865Z,100066.27
2019-01-12T21:21:07.535Z,100067.70
2019-01-12T21:23:38.236Z,100059.11
2019-01-12T21:26:08.877Z,100054.84
2019-01-12T21:28:39.520Z,100061.61
2019-01-12T21:31:10.129Z,100068.05
2019-01-12T21:33:40.705Z,100074.02
2019-01-12T21:36:11.513Z,100056.28
2019-01-12T21:38:42.447Z,100061.63
2019-01-12T21:41:13.147Z,100069.12
2019-01-12T21:43:43.839Z,100067.69
2019-01-12T21:46:14.670Z,100062.67
2019-01-12T21:48:45.414Z,100070.55
2019-01-12T21:51:16.058Z,100075.89
2019-01-12T21:53:47.293Z,100076.00
2019-01-12T21:56:17.990Z,100079.33
2019-01-12T21:58:48.481Z,100081.35
2019-01-12T22:01:19.415Z,100074.32
2019-01-12T22:03:55.238Z,100089.90
2019-01-12T22:06:30.043Z,100084.80
2019-01-12T22:09:27.945Z,100086.80
2019-01-12T22:12:00.817Z,100082.76
2019-01-12T22:14:44.321Z,100084.78
2019-01-12T22:17:15.493Z,100086.66
2019-01-12T22:19:46.662Z,100082.98
2019-01-12T22:22:28.066Z,100083.91
2019-01-12T22:38:33.950Z,100060.28
2019-01-12T22:41:04.813Z,100063.23
2019-01-12T22:43:36.378Z,100055.29
2019-01-12T22:46:07.106Z,100052.19
2019-01-12T22:48:37.965Z,100066.34
2019-01-12T22:51:08.908Z,100047.17
2019-01-12T22:53:39.777Z,100061.09
2019-01-12T22:56:10.468Z,100053.27
2019-01-12T22:58:41.053Z,100052.05
2019-01-12T23:01:56.551Z,100046.22
2019-01-12T23:04:29.593Z,100047.66
2019-01-12T23:07:00.399Z,100045.17
2019-01-12T23:09:31.203Z,100039.95
2019-01-12T23:12:01.922Z,100040.31
2019-01-12T23:14:33.077Z,100037.58
2019-01-12T23:17:03.945Z,100028.04
2019-01-12T23:19:36.082Z,100027.47
2019-01-12T23:22:07.198Z,100029.95
2019-01-12T23:24:37.917Z,100023.75
2019-01-12T23:27:08.535Z,100026.02
2019-01-12T23:29:39.288Z,100029.58
2019-01-12T23:32:09.924Z,100033.28
2019-01-12T23:34:40.608Z,100032.09
2019-01-12T23:37:11.354Z,100039.81
2019-01-12T23:39:42.017Z,100030.52
2019-01-12T23:42:12.624Z,100036.61
2019-01-12T23:44:43.251Z,100046.13
2019-01-12T23:47:13.841Z,100048.61
2019-01-12T23:49:44.487Z,100046.87
2019-01-12T23:52:15.086Z,100045.30
2019-01-12T23:54:45.793Z,100045.06
2019-01-12T23:57:16.352Z,100038.97
2019-01-12T23:59:47.041Z,100053.74
